createdAt,value
2017-08-17T00:00:00.457Z,1015.78
2017-08-17T00:01:12.758Z,1015.74
2017-08-17T00:02:25.411Z,1015.74
2017-08-17T00:03:37.450Z,1015.7
2017-08-17T00:04:49.746Z,1015.72
2017-08-17T00:06:02.023Z,1015.72
2017-08-17T00:07:14.326Z,1015.7
2017-08-17T00:08:26.372Z,1015.68
2017-08-17T00:09:38.650Z,1015.67
2017-08-17T00:10:50.932Z,1015.68
2017-08-17T00:12:03.539Z,1015.72
2017-08-17T00:13:15.784Z,1015.72
2017-08-17T00:14:28.378Z,1015.69
2017-08-17T00:15:40.649Z,1015.69
2017-08-17T00:16:52.905Z,1015.7
2017-08-17T00:18:05.513Z,1015.68
2017-08-17T00:19:17.909Z,1015.65
2017-08-17T00:20:30.247Z,1015.64
2017-08-17T00:21:42.502Z,1015.64
2017-08-17T00:22:55.047Z,1015.59
2017-08-17T00:24:07.520Z,1015.64
2017-08-17T00:25:19.814Z,1015.59
2017-08-17T00:26:32.113Z,1015.57
2017-08-17T00:27:44.088Z,1015.61
2017-08-17T00:28:56.329Z,1015.6
2017-08-17T00:30:08.956Z,1015.6
2017-08-17T00:31:21.248Z,1015.63
2017-08-17T00:32:33.555Z,1015.6
2017-08-17T00:33:46.100Z,1015.64
2017-08-17T00:34:58.665Z,1015.63
2017-08-17T00:36:10.953Z,1015.6
2017-08-17T00:37:23.556Z,1015.63
2017-08-17T00:38:35.771Z,1015.63
2017-08-17T00:39:47.758Z,1015.6
2017-08-17T00:41:00.091Z,1015.61
2017-08-17T00:42:12.065Z,1015.61
2017-08-17T00:43:24.710Z,1015.6
2017-08-17T00:44:36.661Z,1015.62
2017-08-17T00:45:49.246Z,1015.59
2017-08-17T00:47:01.858Z,1015.59
2017-08-17T00:48:13.860Z,1015.62
2017-08-17T00:49:26.126Z,1015.63
2017-08-17T00:50:38.718Z,1015.65
2017-08-17T00:51:51.325Z,1015.68
2017-08-17T00:53:03.621Z,1015.71
2017-08-17T00:54:16.224Z,1015.73
2017-08-17T00:55:28.825Z,1015.69
2017-08-17T00:56:41.415Z,1015.68
2017-08-17T00:57:54.022Z,1015.68
2017-08-17T00:59:06.612Z,1015.66
2017-08-17T01:00:19.183Z,1015.65
2017-08-17T01:01:31.802Z,1015.65
2017-08-17T01:02:44.075Z,1015.66
2017-08-17T01:03:56.682Z,1015.66
2017-08-17T01:05:08.971Z,1015.64
2017-08-17T01:06:21.275Z,1015.65
2017-08-17T01:07:33.929Z,1015.66
2017-08-17T01:08:46.599Z,1015.67
2017-08-17T01:09:59.244Z,1015.71
2017-08-17T01:11:11.546Z,1015.66
2017-08-17T01:12:24.212Z,1015.66
2017-08-17T01:13:36.819Z,1015.68
2017-08-17T01:14:49.421Z,1015.67
2017-08-17T01:16:02.061Z,1015.67
2017-08-17T01:17:14.621Z,1015.65
2017-08-17T01:18:27.461Z,1015.65
2017-08-17T01:19:39.735Z,1015.63
2017-08-17T01:20:52.327Z,1015.61
2017-08-17T01:22:04.561Z,1015.59
2017-08-17T01:23:17.173Z,1015.59
2017-08-17T01:24:29.388Z,1015.58
2017-08-17T01:25:41.635Z,1015.62
2017-08-17T01:26:53.938Z,1015.68
2017-08-17T01:28:06.554Z,1015.66
2017-08-17T01:29:18.859Z,1015.63
2017-08-17T01:30:31.206Z,1015.63
2017-08-17T01:31:43.176Z,1015.58
2017-08-17T01:32:55.717Z,1015.61
2017-08-17T01:34:08.284Z,1015.57
2017-08-17T01:35:20.635Z,1015.53
2017-08-17T01:36:33.277Z,1015.56
2017-08-17T01:37:44.954Z,1015.52
2017-08-17T01:38:57.614Z,1015.58
2017-08-17T01:40:10.192Z,1015.54
2017-08-17T01:41:22.789Z,1015.49
2017-08-17T01:42:34.505Z,1015.48
2017-08-17T01:43:47.134Z,1015.45
2017-08-17T01:44:59.381Z,1015.44
2017-08-17T01:46:11.647Z,1015.48
2017-08-17T01:47:24.204Z,1015.46
2017-08-17T01:48:36.794Z,1015.47
2017-08-17T01:49:49.455Z,1015.44
2017-08-17T01:51:02.056Z,1015.45
2017-08-17T01:52:14.655Z,1015.45
2017-08-17T01:53:26.599Z,1015.46
2017-08-17T01:54:39.229Z,1015.47
2017-08-17T01:55:51.815Z,1015.47
2017-08-17T01:57:03.824Z,1015.46
2017-08-17T01:58:16.136Z,1015.42
2017-08-17T01:59:27.832Z,1015.41
2017-08-17T02:00:40.472Z,1015.45
2017-08-17T02:01:52.788Z,1015.44
2017-08-17T02:03:05.110Z,1015.45
2017-08-17T02:04:17.054Z,1015.37
2017-08-17T02:05:29.612Z,1015.43
2017-08-17T02:06:42.277Z,1015.43
2017-08-17T02:07:54.924Z,1015.35
2017-08-17T02:09:07.520Z,1015.38
2017-08-17T02:10:19.533Z,1015.36
2017-08-17T02:11:31.830Z,1015.38
2017-08-17T02:12:44.719Z,1015.37
2017-08-17T02:13:57.360Z,1015.35
2017-08-17T02:15:09.956Z,1015.31
2017-08-17T02:16:21.944Z,1015.33
2017-08-17T02:17:34.542Z,1015.27
2017-08-17T02:18:47.380Z,1015.28
2017-08-17T02:19:59.726Z,1015.23
2017-08-17T02:21:12.375Z,1015.24
2017-08-17T02:22:24.730Z,1015.2
2017-08-17T02:23:36.994Z,1015.22
2017-08-17T02:24:49.253Z,1015.18
2017-08-17T02:26:01.549Z,1015.12
2017-08-17T02:27:14.067Z,1015.11
2017-08-17T02:28:26.388Z,1015.07
2017-08-17T02:29:38.955Z,1015.05
2017-08-17T02:30:51.265Z,1015.05
2017-08-17T02:32:03.547Z,1014.99
2017-08-17T02:33:16.157Z,1015.02
2017-08-17T02:34:28.456Z,1014.96
2017-08-17T02:35:40.806Z,1014.96
2017-08-17T02:36:53.128Z,1014.94
2017-08-17T02:38:05.434Z,1014.96
2017-08-17T02:39:17.787Z,1014.96
2017-08-17T02:40:30.410Z,1014.95
2017-08-17T02:41:42.957Z,1014.96
2017-08-17T02:42:55.199Z,1014.89
2017-08-17T02:44:07.499Z,1014.87
2017-08-17T02:45:19.484Z,1014.87
2017-08-17T02:46:31.764Z,1014.9
2017-08-17T02:47:44.008Z,1014.87
2017-08-17T02:48:56.559Z,1014.96
2017-08-17T02:50:08.811Z,1014.86
2017-08-17T02:51:21.072Z,1014.88
2017-08-17T02:52:33.642Z,1014.89
2017-08-17T02:53:46.163Z,1014.89
2017-08-17T02:54:58.475Z,1014.89
2017-08-17T02:56:10.707Z,1014.91
2017-08-17T02:57:23.336Z,1014.91
2017-08-17T02:58:35.963Z,1014.91
2017-08-17T02:59:48.616Z,1014.91
2017-08-17T03:01:00.930Z,1014.94
2017-08-17T03:02:13.185Z,1014.93
2017-08-17T03:03:25.529Z,1014.95
2017-08-17T03:04:37.777Z,1014.98
2017-08-17T03:05:50.406Z,1014.98
2017-08-17T03:07:03.053Z,1014.98
2017-08-17T03:08:15.013Z,1015.05
2017-08-17T03:09:26.661Z,1015.07
2017-08-17T03:10:38.959Z,1015.06
2017-08-17T03:11:51.558Z,1015.05
2017-08-17T03:13:03.540Z,1015.11
2017-08-17T03:14:15.812Z,1015.09
2017-08-17T03:15:28.381Z,1015.12
2017-08-17T03:16:40.634Z,1015.15
2017-08-17T03:17:53.473Z,1015.15
2017-08-17T03:19:06.076Z,1015.18
2017-08-17T03:20:18.690Z,1015.24
2017-08-17T03:21:30.981Z,1015.19
2017-08-17T03:22:43.515Z,1015.24
2017-08-17T03:23:56.060Z,1015.22
2017-08-17T03:25:08.642Z,1015.24
2017-08-17T03:26:21.203Z,1015.24
2017-08-17T03:27:33.784Z,1015.23
2017-08-17T03:28:46.390Z,1015.2
2017-08-17T03:29:58.966Z,1015.21
2017-08-17T03:31:11.237Z,1015.23
2017-08-17T03:32:23.836Z,1015.23
2017-08-17T03:33:36.106Z,1015.21
2017-08-17T03:34:48.738Z,1015.24
2017-08-17T03:36:01.322Z,1015.23
2017-08-17T03:37:13.951Z,1015.29
2017-08-17T03:38:26.236Z,1015.25
2017-08-17T03:39:38.237Z,1015.25
2017-08-17T03:40:50.527Z,1015.25
2017-08-17T03:42:03.116Z,1015.24
2017-08-17T03:43:15.721Z,1015.17
2017-08-17T03:44:28.359Z,1015.18
2017-08-17T03:45:40.650Z,1015.23
2017-08-17T03:46:53.257Z,1015.21
2017-08-17T03:48:05.253Z,1015.17
2017-08-17T03:49:17.212Z,1015.2
2017-08-17T03:50:30.053Z,1015.22
2017-08-17T03:51:42.577Z,1015.25
2017-08-17T03:52:54.868Z,1015.27
2017-08-17T03:54:07.540Z,1015.28
2017-08-17T03:55:19.510Z,1015.27
2017-08-17T03:56:31.801Z,1015.26
2017-08-17T03:57:44.070Z,1015.31
2017-08-17T03:58:56.355Z,1015.34
2017-08-17T04:00:08.969Z,1015.31
2017-08-17T04:01:21.512Z,1015.33
2017-08-17T04:02:34.105Z,1015.31
2017-08-17T04:03:46.725Z,1015.32
2017-08-17T04:04:59.303Z,1015.28
2017-08-17T04:06:11.886Z,1015.24
2017-08-17T04:07:24.489Z,1015.29
2017-08-17T04:08:37.083Z,1015.27
2017-08-17T04:09:49.655Z,1015.27
2017-08-17T04:11:02.218Z,1015.26
2017-08-17T04:12:14.522Z,1015.25
2017-08-17T04:13:27.080Z,1015.22
2017-08-17T04:14:39.417Z,1015.23
2017-08-17T04:15:52.023Z,1015.22
2017-08-17T04:17:04.638Z,1015.22
2017-08-17T04:18:16.938Z,1015.2
2017-08-17T04:19:28.932Z,1015.22
2017-08-17T04:20:41.240Z,1015.21
2017-08-17T04:21:53.813Z,1015.18
2017-08-17T04:23:06.417Z,1015.16
2017-08-17T04:24:18.656Z,1015.16
2017-08-17T04:25:30.314Z,1015.16
2017-08-17T04:26:42.929Z,1015.13
2017-08-17T04:27:55.506Z,1015.17
2017-08-17T04:29:07.765Z,1015.16
2017-08-17T04:30:20.072Z,1015.15
2017-08-17T04:31:32.681Z,1015.12
2017-08-17T04:32:45.282Z,1015.14
2017-08-17T04:33:57.554Z,1015.1
2017-08-17T04:35:10.069Z,1015.08
2017-08-17T04:36:22.369Z,1015.06
2017-08-17T04:37:34.956Z,1015.02
2017-08-17T04:38:47.283Z,1015.03
2017-08-17T04:39:59.891Z,1015.03
2017-08-17T04:41:12.210Z,1015.05
2017-08-17T04:42:24.506Z,1015
2017-08-17T04:43:37.143Z,1014.99
2017-08-17T04:44:49.140Z,1014.94
2017-08-17T04:46:00.814Z,1014.94
2017-08-17T04:47:12.795Z,1014.95
2017-08-17T04:48:25.332Z,1014.99
2017-08-17T04:49:37.338Z,1014.96
2017-08-17T04:50:49.891Z,1014.95
2017-08-17T04:52:02.149Z,1014.94
2017-08-17T04:53:14.394Z,1014.92
2017-08-17T04:54:26.390Z,1014.88
2017-08-17T04:55:38.699Z,1014.91
2017-08-17T04:56:51.299Z,1014.89
2017-08-17T04:58:03.649Z,1014.88
2017-08-17T04:59:16.264Z,1014.94
2017-08-17T05:00:28.507Z,1014.95
2017-08-17T05:01:40.879Z,1014.93
2017-08-17T05:02:53.411Z,1014.9
2017-08-17T05:04:05.703Z,1014.9
2017-08-17T05:05:17.645Z,1014.94
2017-08-17T05:06:29.944Z,1014.93
2017-08-17T05:07:42.212Z,1014.94
2017-08-17T05:08:54.713Z,1014.94
2017-08-17T05:10:06.743Z,1014.95
2017-08-17T05:11:19.022Z,1014.94
2017-08-17T05:12:31.332Z,1015.02
2017-08-17T05:13:43.943Z,1015.01
2017-08-17T05:14:55.651Z,1015.05
2017-08-17T05:16:08.263Z,1015.09
2017-08-17T05:17:20.839Z,1015.12
2017-08-17T05:18:33.439Z,1015.14
2017-08-17T05:19:45.686Z,1015.14
2017-08-17T05:20:57.965Z,1015.12
2017-08-17T05:22:10.565Z,1015.15
2017-08-17T05:23:22.845Z,1015.1
2017-08-17T05:24:35.434Z,1015.09
2017-08-17T05:25:48.034Z,1015.09
2017-08-17T05:27:00.600Z,1015.05
2017-08-17T05:28:13.238Z,1015.04
2017-08-17T05:29:25.864Z,1015.06
2017-08-17T05:30:38.166Z,1015.08
2017-08-17T05:31:50.453Z,1015.11
2017-08-17T05:33:03.051Z,1015.1
2017-08-17T05:34:15.319Z,1015.14
2017-08-17T05:35:27.624Z,1015.17
2017-08-17T05:36:40.211Z,1015.19
2017-08-17T05:37:52.782Z,1015.24
2017-08-17T05:39:04.974Z,1015.2
2017-08-17T05:40:16.956Z,1015.2
2017-08-17T05:41:29.546Z,1015.24
2017-08-17T05:42:42.183Z,1015.24
2017-08-17T05:43:54.719Z,1015.22
2017-08-17T05:45:07.007Z,1015.23
2017-08-17T05:46:19.001Z,1015.18
2017-08-17T05:47:31.026Z,1015.15
2017-08-17T05:48:43.629Z,1015.09
2017-08-17T05:49:56.222Z,1015.07
2017-08-17T05:51:07.885Z,1015.08
2017-08-17T05:52:20.539Z,1015.08
2017-08-17T05:53:32.804Z,1015.06
2017-08-17T05:54:45.132Z,1015.04
2017-08-17T05:55:57.473Z,1015.03
2017-08-17T05:57:09.749Z,1015.04
2017-08-17T05:58:22.367Z,1015.02
2017-08-17T05:59:34.927Z,1014.99
2017-08-17T06:00:47.467Z,1014.94
2017-08-17T06:02:00.051Z,1014.93
2017-08-17T06:03:12.253Z,1014.94
2017-08-17T06:04:24.768Z,1014.94
2017-08-17T06:05:37.388Z,1014.91
2017-08-17T06:06:50.008Z,1014.92
2017-08-17T06:08:02.285Z,1014.87
2017-08-17T06:09:14.529Z,1014.89
2017-08-17T06:10:26.850Z,1014.9
2017-08-17T06:11:38.868Z,1014.91
2017-08-17T06:12:51.446Z,1014.92
2017-08-17T06:14:04.096Z,1014.95
2017-08-17T06:15:16.680Z,1014.97
2017-08-17T06:16:28.980Z,1014.96
2017-08-17T06:17:41.255Z,1014.95
2017-08-17T06:18:53.620Z,1014.96
2017-08-17T06:20:06.189Z,1014.94
2017-08-17T06:21:18.791Z,1014.95
2017-08-17T06:22:31.107Z,1014.97
2017-08-17T06:23:43.403Z,1015.02
2017-08-17T06:24:55.923Z,1015
2017-08-17T06:26:08.200Z,1014.99
2017-08-17T06:27:20.664Z,1015.03
2017-08-17T06:28:32.647Z,1015.01
2017-08-17T06:29:44.959Z,1015.04
2017-08-17T06:30:57.555Z,1015.07
2017-08-17T06:32:09.811Z,1015.07
2017-08-17T06:33:22.476Z,1015.11
2017-08-17T06:34:35.094Z,1015.15
2017-08-17T06:35:47.660Z,1015.14
2017-08-17T06:36:59.933Z,1015.16
2017-08-17T06:38:12.244Z,1015.11
2017-08-17T06:39:24.835Z,1015.1
2017-08-17T06:40:36.871Z,1015.07
2017-08-17T06:41:49.141Z,1015.11
2017-08-17T06:43:01.738Z,1015.09
2017-08-17T06:44:14.063Z,1015.05
2017-08-17T06:45:26.315Z,1015.06
2017-08-17T06:46:38.360Z,1015.09
2017-08-17T06:47:50.894Z,1015.08
2017-08-17T06:49:03.459Z,1015.1
2017-08-17T06:50:15.786Z,1015.03
2017-08-17T06:51:28.437Z,1015.08
2017-08-17T06:52:41.028Z,1015.04
2017-08-17T06:53:53.293Z,1015.07
2017-08-17T06:55:05.554Z,1015.05
2017-08-17T06:56:18.147Z,1015.02
2017-08-17T06:57:30.699Z,1014.99
2017-08-17T06:58:43.321Z,1015.01
2017-08-17T06:59:55.933Z,1014.96
2017-08-17T07:01:08.214Z,1014.95
2017-08-17T07:02:20.519Z,1015
2017-08-17T07:03:32.792Z,1014.99
2017-08-17T07:04:45.346Z,1015.03
2017-08-17T07:05:57.673Z,1014.99
2017-08-17T07:07:10.311Z,1014.98
2017-08-17T07:08:22.930Z,1014.94
2017-08-17T07:09:35.551Z,1014.91
2017-08-17T07:10:47.772Z,1014.92
2017-08-17T07:12:00.069Z,1014.87
2017-08-17T07:13:12.050Z,1014.84
2017-08-17T07:14:24.636Z,1014.84
2017-08-17T07:15:37.204Z,1014.76
2017-08-17T07:16:49.827Z,1014.77
2017-08-17T07:18:02.430Z,1014.77
2017-08-17T07:19:14.792Z,1014.78
2017-08-17T07:20:26.790Z,1014.82
2017-08-17T07:21:39.044Z,1014.77
2017-08-17T07:22:51.614Z,1014.74
2017-08-17T07:24:04.198Z,1014.74
2017-08-17T07:25:16.409Z,1014.76
2017-08-17T07:26:28.987Z,1014.77
2017-08-17T07:27:41.275Z,1014.78
2017-08-17T07:28:53.586Z,1014.77
2017-08-17T07:30:06.227Z,1014.78
2017-08-17T07:31:18.235Z,1014.79
2017-08-17T07:32:30.851Z,1014.74
2017-08-17T07:33:42.894Z,1014.76
2017-08-17T07:34:55.471Z,1014.79
2017-08-17T07:36:08.105Z,1014.8
2017-08-17T07:37:20.139Z,1014.8
2017-08-17T07:38:32.775Z,1014.79
2017-08-17T07:39:45.337Z,1014.8
2017-08-17T07:40:57.972Z,1014.77
2017-08-17T07:42:10.648Z,1014.77
2017-08-17T07:43:22.990Z,1014.75
2017-08-17T07:44:35.628Z,1014.73
2017-08-17T07:45:48.239Z,1014.75
2017-08-17T07:47:00.589Z,1014.74
2017-08-17T07:48:12.902Z,1014.75
2017-08-17T07:49:25.255Z,1014.78
2017-08-17T07:50:37.934Z,1014.76
2017-08-17T07:51:50.581Z,1014.77
2017-08-17T07:53:02.867Z,1014.74
2017-08-17T07:54:15.499Z,1014.78
2017-08-17T07:55:28.094Z,1014.73
2017-08-17T07:56:40.127Z,1014.73
2017-08-17T07:57:52.158Z,1014.7
2017-08-17T07:59:04.753Z,1014.72
2017-08-17T08:00:17.004Z,1014.73
2017-08-17T08:01:29.346Z,1014.73
2017-08-17T08:02:41.622Z,1014.73
2017-08-17T08:03:54.256Z,1014.67
2017-08-17T08:05:06.608Z,1014.69
2017-08-17T08:06:19.178Z,1014.7
2017-08-17T08:07:31.818Z,1014.67
2017-08-17T08:08:43.883Z,1014.65
2017-08-17T08:09:56.276Z,1014.66
2017-08-17T08:11:08.814Z,1014.64
2017-08-17T08:12:21.112Z,1014.62
2017-08-17T08:13:33.792Z,1014.62
2017-08-17T08:14:46.462Z,1014.64
2017-08-17T08:15:58.745Z,1014.64
2017-08-17T08:17:11.010Z,1014.63
2017-08-17T08:18:23.357Z,1014.62
2017-08-17T08:19:35.053Z,1014.59
2017-08-17T08:20:47.659Z,1014.63
2017-08-17T08:22:00.276Z,1014.69
2017-08-17T08:23:12.550Z,1014.66
2017-08-17T08:24:25.186Z,1014.69
2017-08-17T08:25:37.794Z,1014.67
2017-08-17T08:26:50.113Z,1014.61
2017-08-17T08:28:02.463Z,1014.66
2017-08-17T08:29:15.067Z,1014.61
2017-08-17T08:30:27.658Z,1014.66
2017-08-17T08:31:39.675Z,1014.6
2017-08-17T08:32:52.214Z,1014.63
2017-08-17T08:34:04.811Z,1014.54
2017-08-17T08:35:17.108Z,1014.56
2017-08-17T08:36:29.790Z,1014.58
2017-08-17T08:37:42.428Z,1014.56
2017-08-17T08:38:54.751Z,1014.58
2017-08-17T08:40:07.341Z,1014.51
2017-08-17T08:41:19.641Z,1014.57
2017-08-17T08:42:31.965Z,1014.58
2017-08-17T08:43:44.183Z,1014.56
2017-08-17T08:44:56.726Z,1014.64
2017-08-17T08:46:08.729Z,1014.58
2017-08-17T08:47:21.395Z,1014.55
2017-08-17T08:48:33.937Z,1014.51
2017-08-17T08:49:46.532Z,1014.45
2017-08-17T08:50:58.784Z,1014.53
2017-08-17T08:52:11.399Z,1014.39
2017-08-17T08:53:24.008Z,1014.42
2017-08-17T08:54:36.656Z,1014.52
2017-08-17T08:55:49.251Z,1014.44
2017-08-17T08:57:01.818Z,1014.44
2017-08-17T08:58:14.091Z,1014.42
2017-08-17T08:59:26.707Z,1014.38
2017-08-17T09:00:39.598Z,1014.29
2017-08-17T09:01:51.573Z,1014.32
2017-08-17T09:03:03.865Z,1014.32
2017-08-17T09:04:16.458Z,1014.3
2017-08-17T09:05:29.110Z,1014.23
2017-08-17T09:06:41.717Z,1014.23
2017-08-17T09:07:54.300Z,1014.2
2017-08-17T09:09:06.949Z,1014.19
2017-08-17T09:10:19.205Z,1014.17
2017-08-17T09:11:31.886Z,1014.12
2017-08-17T09:12:44.503Z,1014.12
2017-08-17T09:13:56.511Z,1014.12
2017-08-17T09:15:08.825Z,1014.08
2017-08-17T09:16:21.119Z,1014.05
2017-08-17T09:17:33.438Z,1014.04
2017-08-17T09:18:46.047Z,1014.01
2017-08-17T09:19:58.337Z,1014.01
2017-08-17T09:21:10.652Z,1013.99
2017-08-17T09:22:22.663Z,1013.95
2017-08-17T09:23:34.719Z,1013.95
2017-08-17T09:24:47.025Z,1013.98
2017-08-17T09:25:59.310Z,1013.97
2017-08-17T09:27:11.927Z,1013.99
2017-08-17T09:28:24.526Z,1013.92
2017-08-17T09:29:36.790Z,1013.96
2017-08-17T09:30:49.400Z,1013.89
2017-08-17T09:32:02.017Z,1013.89
2017-08-17T09:33:14.246Z,1013.89
2017-08-17T09:34:26.185Z,1013.86
2017-08-17T09:35:38.809Z,1013.9
2017-08-17T09:36:51.074Z,1013.89
2017-08-17T09:38:03.919Z,1013.83
2017-08-17T09:39:16.257Z,1013.79
2017-08-17T09:40:27.613Z,1013.8
2017-08-17T09:41:40.206Z,1013.69
2017-08-17T09:42:52.835Z,1013.73
2017-08-17T09:44:05.473Z,1013.79
2017-08-17T09:45:17.781Z,1013.74
2017-08-17T09:46:30.097Z,1013.74
2017-08-17T09:47:42.415Z,1013.74
2017-08-17T09:48:54.731Z,1013.71
2017-08-17T09:50:07.321Z,1013.67
2017-08-17T09:51:19.636Z,1013.64
2017-08-17T09:52:31.662Z,1013.61
2017-08-17T09:53:44.208Z,1013.57
2017-08-17T09:54:56.766Z,1013.53
2017-08-17T09:56:09.085Z,1013.58
2017-08-17T09:57:21.388Z,1013.48
2017-08-17T09:58:34.079Z,1013.52
2017-08-17T09:59:46.571Z,1013.46
2017-08-17T10:00:59.195Z,1013.41
2017-08-17T10:02:11.498Z,1013.49
2017-08-17T10:03:23.535Z,1013.47
2017-08-17T10:04:35.588Z,1013.4
2017-08-17T10:05:47.862Z,1013.43
2017-08-17T10:07:00.150Z,1013.34
2017-08-17T10:08:12.836Z,1013.42
2017-08-17T10:09:25.162Z,1013.44
2017-08-17T10:10:37.441Z,1013.45
2017-08-17T10:11:49.986Z,1013.48
2017-08-17T10:13:02.550Z,1013.44
2017-08-17T10:14:14.912Z,1013.36
2017-08-17T10:15:27.551Z,1013.34
2017-08-17T10:16:40.168Z,1013.29
2017-08-17T10:17:52.441Z,1013.25
2017-08-17T10:19:05.094Z,1013.26
2017-08-17T10:20:17.393Z,1013.38
2017-08-17T10:21:30.022Z,1013.31
2017-08-17T10:22:42.617Z,1013.28
2017-08-17T10:23:54.919Z,1013.25
2017-08-17T10:25:07.533Z,1013.28
2017-08-17T10:26:19.534Z,1013.25
2017-08-17T10:27:31.225Z,1013.19
2017-08-17T10:28:43.814Z,1013.23
2017-08-17T10:29:56.429Z,1013.21
2017-08-17T10:31:08.817Z,1013.21
2017-08-17T10:32:21.102Z,1013.22
2017-08-17T10:33:33.406Z,1013.26
2017-08-17T10:34:45.669Z,1013.29
2017-08-17T10:35:57.934Z,1013.23
2017-08-17T10:37:10.239Z,1013.16
2017-08-17T10:38:21.934Z,1013.15
2017-08-17T10:39:34.203Z,1013.09
2017-08-17T10:40:46.843Z,1013.11
2017-08-17T10:41:59.490Z,1013.11
2017-08-17T10:43:12.058Z,1013.03
2017-08-17T10:44:24.672Z,1013.04
2017-08-17T10:45:36.381Z,1013.06
2017-08-17T10:46:48.115Z,1013.03
2017-08-17T10:48:00.124Z,1012.99
2017-08-17T10:49:12.170Z,1013.07
2017-08-17T10:50:23.852Z,1013.03
2017-08-17T10:51:35.585Z,1013.03
2017-08-17T10:52:47.933Z,1012.97
2017-08-17T10:54:00.490Z,1013.04
2017-08-17T10:55:12.775Z,1013.07
2017-08-17T10:56:25.440Z,1013.07
2017-08-17T10:57:37.730Z,1013.04
2017-08-17T10:58:50.348Z,1013.05
2017-08-17T11:00:02.341Z,1013
2017-08-17T11:01:14.713Z,1012.96
2017-08-17T11:02:27.410Z,1012.98
2017-08-17T11:03:40.047Z,1012.9
2017-08-17T11:04:52.650Z,1012.79
2017-08-17T11:06:04.925Z,1012.92
2017-08-17T11:07:17.553Z,1012.85
2017-08-17T11:08:30.165Z,1012.78
2017-08-17T11:09:42.776Z,1012.78
2017-08-17T11:10:55.398Z,1012.79
2017-08-17T11:12:08.073Z,1012.83
2017-08-17T11:13:20.075Z,1012.88
2017-08-17T11:14:32.729Z,1012.9
2017-08-17T11:15:45.394Z,1012.82
2017-08-17T11:16:57.688Z,1012.83
2017-08-17T11:18:10.273Z,1012.89
2017-08-17T11:19:22.905Z,1012.84
2017-08-17T11:20:34.885Z,1012.85
2017-08-17T11:21:47.524Z,1012.73
2017-08-17T11:23:00.110Z,1012.72
2017-08-17T11:24:12.678Z,1012.7
2017-08-17T11:25:25.380Z,1012.74
2017-08-17T11:26:37.707Z,1012.64
2017-08-17T11:27:50.291Z,1012.64
2017-08-17T11:29:02.574Z,1012.66
2017-08-17T11:30:14.888Z,1012.64
2017-08-17T11:31:26.895Z,1012.6
2017-08-17T11:32:39.249Z,1012.5
2017-08-17T11:33:51.863Z,1012.51
2017-08-17T11:35:04.447Z,1012.53
2017-08-17T11:36:16.119Z,1012.49
2017-08-17T11:37:28.974Z,1012.44
2017-08-17T11:38:41.278Z,1012.48
2017-08-17T11:39:53.285Z,1012.46
2017-08-17T11:41:05.926Z,1012.47
2017-08-17T11:42:18.247Z,1012.49
2017-08-17T11:43:30.562Z,1012.42
2017-08-17T11:44:42.865Z,1012.43
2017-08-17T11:45:55.162Z,1012.49
2017-08-17T11:47:07.458Z,1012.49
2017-08-17T11:48:19.755Z,1012.46
2017-08-17T11:49:31.134Z,1012.47
2017-08-17T11:50:43.725Z,1012.48
2017-08-17T11:51:55.715Z,1012.41
2017-08-17T11:53:08.055Z,1012.39
2017-08-17T11:54:20.688Z,1012.41
2017-08-17T11:55:32.672Z,1012.4
2017-08-17T11:56:44.957Z,1012.46
2017-08-17T11:57:57.276Z,1012.55
2017-08-17T11:59:09.619Z,1012.56
2017-08-17T12:00:22.225Z,1012.63
2017-08-17T12:01:34.590Z,1012.61
2017-08-17T12:02:47.243Z,1012.68
2017-08-17T12:03:59.854Z,1012.67
2017-08-17T12:05:12.426Z,1012.71
2017-08-17T12:06:24.470Z,1012.74
2017-08-17T12:07:36.497Z,1012.75
2017-08-17T12:08:48.526Z,1012.77
2017-08-17T12:10:01.106Z,1012.7
2017-08-17T12:11:13.099Z,1012.65
2017-08-17T12:12:25.314Z,1012.56
2017-08-17T12:13:37.917Z,1012.51
2017-08-17T12:14:50.566Z,1012.53
2017-08-17T12:16:03.188Z,1012.55
2017-08-17T12:17:14.930Z,1012.58
2017-08-17T12:18:27.528Z,1012.6
2017-08-17T12:19:40.156Z,1012.59
2017-08-17T12:20:52.810Z,1012.58
2017-08-17T12:22:05.401Z,1012.56
2017-08-17T12:23:17.710Z,1012.51
2017-08-17T12:24:29.706Z,1012.54
2017-08-17T12:25:41.971Z,1012.53
2017-08-17T12:26:54.600Z,1012.46
2017-08-17T12:28:07.204Z,1012.41
2017-08-17T12:29:19.534Z,1012.42
2017-08-17T12:30:31.831Z,1012.4
2017-08-17T12:31:44.399Z,1012.39
2017-08-17T12:32:57.036Z,1012.42
2017-08-17T12:34:09.350Z,1012.46
2017-08-17T12:35:21.637Z,1012.42
2017-08-17T12:36:34.293Z,1012.43
2017-08-17T12:37:46.889Z,1012.43
2017-08-17T12:38:59.230Z,1012.49
2017-08-17T12:40:11.814Z,1012.49
2017-08-17T12:41:24.416Z,1012.5
2017-08-17T12:42:37.306Z,1012.45
2017-08-17T12:43:49.324Z,1012.49
2017-08-17T12:45:01.943Z,1012.47
2017-08-17T12:46:14.207Z,1012.43
2017-08-17T12:47:26.826Z,1012.39
2017-08-17T12:48:39.417Z,1012.34
2017-08-17T12:49:52.119Z,1012.32
2017-08-17T12:51:04.152Z,1012.28
2017-08-17T12:52:16.734Z,1012.26
2017-08-17T12:53:28.757Z,1012.26
2017-08-17T12:54:40.765Z,1012.24
2017-08-17T12:55:53.111Z,1012.26
2017-08-17T12:57:05.398Z,1012.29
2017-08-17T12:58:18.009Z,1012.29
2017-08-17T12:59:30.343Z,1012.29
2017-08-17T13:00:42.387Z,1012.29
2017-08-17T13:01:54.386Z,1012.29
2017-08-17T13:03:06.717Z,1012.32
2017-08-17T13:04:19.263Z,1012.28
2017-08-17T13:05:31.894Z,1012.23
2017-08-17T13:06:44.199Z,1012.23
2017-08-17T13:07:56.814Z,1012.24
2017-08-17T13:09:08.833Z,1012.28
2017-08-17T13:10:21.177Z,1012.2
2017-08-17T13:11:33.800Z,1012.16
2017-08-17T13:12:45.768Z,1012.1
2017-08-17T13:13:58.362Z,1012.16
2017-08-17T13:15:10.650Z,1012.09
2017-08-17T13:16:22.323Z,1012.1
2017-08-17T13:17:34.907Z,1012.1
2017-08-17T13:18:47.482Z,1012.06
2017-08-17T13:20:00.073Z,1012.08
2017-08-17T13:21:12.020Z,1012.01
2017-08-17T13:22:24.014Z,1011.93
2017-08-17T13:23:36.619Z,1011.92
2017-08-17T13:24:48.652Z,1011.9
2017-08-17T13:26:00.958Z,1011.87
2017-08-17T13:27:13.304Z,1011.85
2017-08-17T13:28:25.624Z,1011.86
2017-08-17T13:29:37.893Z,1011.82
2017-08-17T13:30:50.162Z,1011.84
2017-08-17T13:32:02.731Z,1011.83
2017-08-17T13:33:15.033Z,1011.82
2017-08-17T13:34:27.396Z,1011.8
2017-08-17T13:35:39.666Z,1011.81
2017-08-17T13:36:51.944Z,1011.82
2017-08-17T13:38:04.200Z,1011.82
2017-08-17T13:39:16.434Z,1011.77
2017-08-17T13:40:29.068Z,1011.75
2017-08-17T13:41:41.301Z,1011.69
2017-08-17T13:42:53.332Z,1011.7
2017-08-17T13:44:05.954Z,1011.62
2017-08-17T13:45:18.608Z,1011.63
2017-08-17T13:46:30.520Z,1011.62
2017-08-17T13:47:42.506Z,1011.55
2017-08-17T13:48:55.048Z,1011.54
2017-08-17T13:50:06.765Z,1011.54
2017-08-17T13:51:19.318Z,1011.52
2017-08-17T13:52:31.576Z,1011.52
2017-08-17T13:53:43.515Z,1011.49
2017-08-17T13:54:55.832Z,1011.5
2017-08-17T13:56:08.487Z,1011.46
2017-08-17T13:57:21.060Z,1011.47
2017-08-17T13:58:33.353Z,1011.46
2017-08-17T13:59:45.046Z,1011.42
2017-08-17T14:00:57.572Z,1011.37
2017-08-17T14:02:10.176Z,1011.34
2017-08-17T14:03:22.696Z,1011.35
2017-08-17T14:04:35.070Z,1011.33
2017-08-17T14:05:46.763Z,1011.33
2017-08-17T14:06:59.334Z,1011.28
2017-08-17T14:08:11.984Z,1011.28
2017-08-17T14:09:24.600Z,1011.24
2017-08-17T14:10:37.200Z,1011.22
2017-08-17T14:11:49.810Z,1011.2
2017-08-17T14:13:02.429Z,1011.19
2017-08-17T14:14:14.434Z,1011.12
2017-08-17T14:15:26.367Z,1011.04
2017-08-17T14:16:38.658Z,1011.09
2017-08-17T14:17:50.917Z,1011.06
2017-08-17T14:19:02.873Z,1011.05
2017-08-17T14:20:15.466Z,1011.06
2017-08-17T14:21:27.401Z,1011.07
2017-08-17T14:22:40.117Z,1011.04
2017-08-17T14:23:52.720Z,1011.06
2017-08-17T14:25:05.066Z,1011.08
2017-08-17T14:26:17.285Z,1011.08
2017-08-17T14:27:29.922Z,1011.1
2017-08-17T14:28:41.941Z,1011.05
2017-08-17T14:29:54.581Z,1011.01
2017-08-17T14:31:06.936Z,1011.04
2017-08-17T14:32:18.934Z,1011.03
2017-08-17T14:33:31.253Z,1010.99
2017-08-17T14:34:43.558Z,1011.01
2017-08-17T14:35:55.867Z,1010.99
2017-08-17T14:37:08.160Z,1011.02